Time;durP1;ratioP1;P1;durP2;ratioP2;P2;SDS_P1;SDS_P2;PMS_P1;PMS_P2;Temp;Humidity;BMP_temperature;BMP_pressure;BME280_temperature;BME280_humidity;BME280_pressure;Samples;Min_cycle;Max_cycle;Signal;HPM_P1;HPM_P2
2022/12/20 00:01:33;;;;;;;2.65;0.70;;;9.70;99.90;;;;;;5093709;28;20044;-59
2022/12/20 00:04:04;;;;;;;3.08;0.73;;;9.70;99.90;;;;;;5093179;28;20048;-59
2022/12/20 00:06:35;;;;;;;5.45;0.80;;;9.70;99.90;;;;;;5092728;28;20612;-58
2022/12/20 00:09:06;;;;;;;7.97;1.10;;;9.60;99.90;;;;;;5094816;28;20059;-58
2022/12/20 00:11:34;;;;;;;7.07;1.40;;;9.60;99.90;;;;;;5095020;28;20048;-59
2022/12/20 00:14:02;;;;;;;3.17;1.00;;;9.60;99.90;;;;;;5093109;28;20059;-58
2022/12/20 00:16:30;;;;;;;6.72;0.80;;;9.60;99.90;;;;;;5094074;28;20059;-59
2022/12/20 00:19:01;;;;;;;9.80;1.13;;;9.50;99.90;;;;;;5093284;28;20430;-59
2022/12/20 00:21:30;;;;;;;7.25;0.85;;;9.50;99.90;;;;;;5094923;28;20491;-59
2022/12/20 00:23:58;;;;;;;6.60;0.80;;;9.50;99.90;;;;;;5093091;28;20085;-59
2022/12/20 00:26:28;;;;;;;4.90;0.57;;;9.50;99.90;;;;;;5076266;28;20048;-58
2022/12/20 00:28:57;;;;;;;4.38;0.70;;;9.50;99.90;;;;;;5093250;28;20060;-59
2022/12/20 00:31:26;;;;;;;3.22;0.60;;;9.50;99.90;;;;;;5093412;28;20040;-58
2022/12/20 00:33:56;;;;;;;2.20;0.50;;;9.40;99.90;;;;;;5092533;28;20055;-59
2022/12/20 00:36:25;;;;;;;6.25;0.60;;;9.40;99.90;;;;;;5094190;28;20040;-59
2022/12/20 00:38:54;;;;;;;4.78;0.60;;;9.40;99.90;;;;;;5094035;28;20059;-58
2022/12/20 00:41:25;;;;;;;2.27;0.37;;;9.40;99.90;;;;;;5093057;28;20055;-58
2022/12/20 00:43:53;;;;;;;5.45;0.75;;;9.40;99.90;;;;;;5090586;28;20296;-58
2022/12/20 00:46:23;;;;;;;1.70;0.73;;;9.40;99.90;;;;;;5092972;28;20028;-58
2022/12/20 00:48:53;;;;;;;3.65;0.40;;;9.40;99.90;;;;;;5093934;28;20070;-58
2022/12/20 00:51:24;;;;;;;4.32;0.40;;;9.40;99.90;;;;;;5090358;28;20373;-58
2022/12/20 00:53:53;;;;;;;6.15;0.35;;;9.40;99.90;;;;;;5088645;28;20044;-58
2022/12/20 00:56:21;;;;;;;1.85;0.30;;;9.40;99.90;;;;;;5089138;28;20047;-58
2022/12/20 00:58:49;;;;;;;1.48;0.50;;;9.40;99.90;;;;;;5081010;28;20047;-57
2022/12/20 01:01:25;;;;;;;2.42;0.50;;;9.40;99.90;;;;;;5076838;28;20055;-57
2022/12/20 01:03:53;;;;;;;6.00;0.85;;;9.30;99.90;;;;;;5086376;28;20040;-58
2022/12/20 01:06:23;;;;;;;2.20;0.30;;;9.40;99.90;;;;;;5083351;28;20518;-59
2022/12/20 01:08:52;;;;;;;;;;;9.30;99.90;;;;;;5090098;28;20044;-58
2022/12/20 01:11:22;;;;;;;2.90;0.30;;;9.30;99.90;;;;;;5090540;28;19927;-59
2022/12/20 01:13:53;;;;;;;5.05;0.30;;;9.30;99.90;;;;;;5088297;28;20349;-59
2022/12/20 01:16:30;;;;;;;3.65;0.28;;;9.30;99.90;;;;;;5089627;28;20044;-57
2022/12/20 01:18:58;;;;;;;2.90;0.25;;;9.20;99.90;;;;;;5089918;28;20403;-57
2022/12/20 01:21:27;;;;;;;2.92;0.32;;;9.20;99.90;;;;;;5090558;28;20066;-58
2022/12/20 01:23:55;;;;;;;2.45;0.77;;;9.20;99.90;;;;;;5090196;28;20052;-58
2022/12/20 01:26:26;;;;;;;3.85;0.40;;;9.20;99.90;;;;;;5090171;28;20052;-58
2022/12/20 01:28:58;;;;;;;2.60;0.30;;;9.20;99.90;;;;;;5081223;28;20044;-58
2022/12/20 01:31:28;;;;;;;1.70;0.20;;;9.20;99.90;;;;;;5077724;28;20037;-58
2022/12/20 01:33:56;;;;;;;8.43;0.75;;;9.20;99.90;;;;;;5088981;28;20044;-58
2022/12/20 01:36:28;;;;;;;1.67;0.75;;;9.20;99.90;;;;;;5089200;28;20044;-58
2022/12/20 01:39:08;;;;;;;2.45;0.40;;;9.20;99.90;;;;;;5088326;28;20047;-59
2022/12/20 01:41:37;;;;;;;;;;;9.20;99.90;;;;;;5070461;28;20048;-58
2022/12/20 01:44:25;;;;;;;1.45;0.20;;;9.20;99.90;;;;;;5078719;28;19927;-59
2022/12/20 01:46:54;;;;;;;1.88;0.28;;;9.20;99.90;;;;;;5080214;28;20055;-59
2022/12/20 01:49:29;;;;;;;3.80;0.20;;;9.20;99.90;;;;;;5085702;28;20040;-58
2022/12/20 01:52:25;;;;;;;3.95;0.30;;;9.20;99.90;;;;;;5071851;28;20403;-60
2022/12/20 01:54:59;;;;;;;2.08;0.20;;;9.10;99.90;;;;;;5089611;28;20048;-59
2022/12/20 01:57:33;;;;;;;1.88;0.35;;;9.20;99.90;;;;;;5088814;28;20036;-58
2022/12/20 02:00:03;;;;;;;6.97;0.77;;;9.20;99.90;;;;;;5072675;28;20045;-59
2022/12/20 02:02:40;;;;;;;0.77;0.10;;;9.20;99.90;;;;;;5088459;28;20048;-60
2022/12/20 02:05:08;;;;;;;1.10;0.20;;;9.10;99.90;;;;;;5086888;28;20052;-59
2022/12/20 02:07:37;;;;;;;3.42;0.77;;;9.10;99.90;;;;;;5087897;28;20631;-58
2022/12/20 02:10:06;;;;;;;2.20;0.30;;;9.10;99.90;;;;;;5089800;28;20055;-59
2022/12/20 02:12:46;;;;;;;3.85;0.40;;;9.10;99.90;;;;;;5088448;28;20055;-59
2022/12/20 02:15:29;;;;;;;6.65;1.15;;;9.10;99.90;;;;;;5075176;28;20067;-59
2022/12/20 02:18:15;;;;;;;2.40;0.32;;;9.10;99.90;;;;;;5089293;28;20044;-60
2022/12/20 02:21:07;;;;;;;1.73;0.95;;;9.10;99.90;;;;;;5088220;28;20040;-58
2022/12/20 02:24:23;;;;;;;7.15;1.00;;;9.10;99.90;;;;;;5089395;28;20737;-59
2022/12/20 02:27:18;;;;;;;0.98;0.28;;;9.00;99.90;;;;;;5083835;28;20063;-59
2022/12/20 02:30:09;;;;;;;6.45;0.57;;;9.00;99.90;;;;;;5087072;28;20052;-60
2022/12/20 02:32:43;;;;;;;3.92;0.30;;;9.00;99.90;;;;;;5073266;28;20407;-57
2022/12/20 02:35:14;;;;;;;3.42;0.50;;;8.90;99.90;;;;;;5072284;28;20575;-58
2022/12/20 02:37:54;;;;;;;5.22;0.43;;;8.90;99.90;;;;;;5080457;28;20043;-58
2022/12/20 02:40:30;;;;;;;2.63;0.60;;;8.80;99.90;;;;;;5091423;28;20051;-58
2022/12/20 02:43:02;;;;;;;7.82;0.60;;;8.70;99.90;;;;;;5091156;28;20044;-59
2022/12/20 02:45:33;;;;;;;2.80;0.38;;;8.70;99.90;;;;;;5089676;28;20483;-59
2022/12/20 02:48:09;;;;;;;4.82;0.60;;;8.70;99.90;;;;;;5085494;28;20040;-58
2022/12/20 02:50:46;;;;;;;2.33;0.22;;;8.60;99.90;;;;;;5090395;28;20051;-59
2022/12/20 02:53:16;;;;;;;6.82;0.98;;;8.60;99.90;;;;;;5092288;28;20399;-59
2022/12/20 02:55:55;;;;;;;2.97;0.50;;;8.60;99.90;;;;;;5092193;28;20052;-59
2022/12/20 02:58:49;;;;;;;1.40;0.30;;;8.50;99.90;;;;;;5090334;28;20048;-58
2022/12/20 03:01:24;;;;;;;3.80;0.40;;;8.50;99.90;;;;;;5090910;28;20289;-57
2022/12/20 03:03:55;;;;;;;7.25;1.67;;;8.50;99.90;;;;;;5090569;28;20052;-59
2022/12/20 03:06:23;;;;;;;;;;;8.50;99.90;;;;;;5091753;28;20051;-58
2022/12/20 03:08:50;;;;;;;4.85;0.47;;;8.50;99.90;;;;;;5090693;28;19924;-57
2022/12/20 03:11:19;;;;;;;5.32;0.40;;;8.50;99.90;;;;;;5091977;28;20044;-57
2022/12/20 03:13:47;;;;;;;1.42;0.20;;;8.50;99.90;;;;;;5076004;28;20052;-57
2022/12/20 03:16:14;;;;;;;4.25;0.63;;;8.50;99.90;;;;;;5069350;28;20041;-59
2022/12/20 03:18:44;;;;;;;3.38;0.35;;;8.50;99.90;;;;;;5084584;28;20050;-59
2022/12/20 03:21:12;;;;;;;2.33;0.85;;;8.50;99.90;;;;;;5090381;28;20423;-60
2022/12/20 03:23:39;;;;;;;8.25;0.40;;;8.50;99.90;;;;;;5091559;28;20044;-60
2022/12/20 03:26:07;;;;;;;5.75;0.50;;;8.40;99.90;;;;;;5090066;28;20511;-60
2022/12/20 03:28:40;;;;;;;7.97;0.47;;;8.40;99.90;;;;;;5090686;28;20091;-59
2022/12/20 03:31:11;;;;;;;6.82;0.70;;;8.30;99.90;;;;;;5090411;28;20040;-58
2022/12/20 03:33:45;;;;;;;6.45;1.08;;;8.30;99.90;;;;;;5090242;28;20387;-59
2022/12/20 03:36:13;;;;;;;4.57;0.85;;;8.30;99.90;;;;;;5073560;28;20047;-59
2022/12/20 03:38:41;;;;;;;5.57;0.65;;;8.30;99.90;;;;;;5090394;28;20044;-58
2022/12/20 03:41:09;;;;;;;7.05;0.73;;;8.30;99.90;;;;;;5090191;28;20047;-61
2022/12/20 03:43:37;;;;;;;2.97;0.50;;;8.30;99.90;;;;;;5091482;28;20032;-58
2022/12/20 03:46:05;;;;;;;6.25;0.60;;;8.30;99.90;;;;;;5090521;28;20044;-59
2022/12/20 03:48:37;;;;;;;4.78;0.63;;;8.20;99.90;;;;;;5091377;28;20044;-60
2022/12/20 03:51:05;;;;;;;6.30;0.60;;;8.20;99.90;;;;;;5090036;28;20040;-59
2022/12/20 03:53:33;;;;;;;2.92;0.60;;;8.20;99.90;;;;;;5091647;28;20051;-60
2022/12/20 03:56:00;;;;;;;4.18;0.90;;;8.20;99.90;;;;;;5091338;28;20040;-59
2022/12/20 03:58:28;;;;;;;3.70;0.80;;;8.20;99.90;;;;;;5090089;28;20036;-59
2022/12/20 04:00:57;;;;;;;5.45;0.82;;;8.20;99.90;;;;;;5089921;28;20043;-59
2022/12/20 04:03:43;;;;;;;3.25;0.63;;;8.20;99.90;;;;;;5091286;28;20055;-60
2022/12/20 04:06:11;;;;;;;2.35;0.28;;;8.10;99.90;;;;;;5091117;28;20036;-59
2022/12/20 04:08:38;;;;;;;6.28;0.85;;;8.20;99.90;;;;;;5091492;28;20044;-60
2022/12/20 04:11:15;;;;;;;4.20;0.40;;;8.10;99.90;;;;;;5090085;28;20044;-60
2022/12/20 04:13:55;;;;;;;10.65;0.80;;;8.10;99.90;;;;;;5090117;28;20050;-58
2022/12/20 04:16:27;;;;;;;5.00;0.50;;;8.20;99.90;;;;;;5089950;28;20047;-58
2022/12/20 04:18:56;;;;;;;1.92;0.50;;;8.20;99.90;;;;;;5089541;28;20216;-59
2022/12/20 04:21:31;;;;;;;4.95;0.73;;;8.20;99.90;;;;;;5089604;28;20051;-58
2022/12/20 04:24:00;;;;;;;6.18;0.50;;;8.20;99.90;;;;;;5091354;28;20052;-57
2022/12/20 04:26:37;;;;;;;7.70;0.90;;;8.10;99.90;;;;;;5089752;28;20048;-58
2022/12/20 04:29:05;;;;;;;3.95;0.60;;;8.20;99.90;;;;;;5089928;28;20047;-58
2022/12/20 04:31:33;;;;;;;5.43;0.68;;;8.20;99.90;;;;;;5093253;28;20047;-57
2022/12/20 04:34:01;;;;;;;6.38;0.70;;;8.20;99.90;;;;;;5093689;28;20036;-58
2022/12/20 04:36:31;;;;;;;2.33;0.45;;;8.10;99.90;;;;;;5093475;28;20048;-58
2022/12/20 04:39:02;;;;;;;2.72;0.40;;;8.10;99.90;;;;;;5093805;28;20503;-58
2022/12/20 04:41:38;;;;;;;6.28;1.05;;;8.10;99.90;;;;;;5093438;28;20479;-60
2022/12/20 04:44:10;;;;;;;1.73;0.47;;;8.10;99.90;;;;;;5093699;28;20040;-60
2022/12/20 04:46:38;;;;;;;5.28;0.70;;;8.10;99.90;;;;;;5093522;28;20039;-60
2022/12/20 04:49:10;;;;;;;5.20;0.40;;;8.10;99.90;;;;;;5093212;28;20048;-60
2022/12/20 04:51:41;;;;;;;4.28;0.80;;;8.00;99.90;;;;;;5093260;28;20043;-60
2022/12/20 04:54:11;;;;;;;4.85;0.80;;;8.00;99.90;;;;;;5093537;28;20066;-60
2022/12/20 04:56:44;;;;;;;4.45;0.73;;;8.00;99.90;;;;;;5076023;28;20052;-60
2022/12/20 04:59:17;;;;;;;4.75;0.75;;;8.00;99.90;;;;;;5092912;28;20043;-58
2022/12/20 05:01:48;;;;;;;7.50;1.23;;;8.00;99.90;;;;;;5093244;28;20499;-58
2022/12/20 05:04:28;;;;;;;6.20;0.80;;;8.00;99.90;;;;;;5093040;28;20051;-60
2022/12/20 05:07:03;;;;;;;4.55;0.52;;;8.00;99.90;;;;;;5092982;28;20055;-59
2022/12/20 05:09:32;;;;;;;3.95;0.80;;;7.90;99.90;;;;;;5092846;28;20048;-59
2022/12/20 05:12:00;;;;;;;7.28;0.85;;;7.90;99.90;;;;;;5093000;28;20043;-59
2022/12/20 05:14:28;;;;;;;5.93;0.85;;;7.90;99.90;;;;;;5093317;28;20476;-57
2022/12/20 05:16:56;;;;;;;7.07;1.00;;;7.90;99.90;;;;;;5092932;28;20048;-57
2022/12/20 05:19:26;;;;;;;9.10;0.88;;;7.80;99.90;;;;;;5092577;28;20051;-59
2022/12/20 05:27:37;;;;;;;5.80;0.80;;;7.70;99.90;;;;;;5092750;28;20066;-59
2022/12/20 05:30:05;;;;;;;5.30;0.70;;;7.60;99.90;;;;;;5092543;28;20048;-59
2022/12/20 05:32:33;;;;;;;8.07;1.30;;;7.60;99.90;;;;;;5093369;28;20043;-58
2022/12/20 05:35:01;;;;;;;5.85;0.73;;;7.60;99.90;;;;;;5092284;28;20048;-58
2022/12/20 05:37:29;;;;;;;4.18;1.15;;;7.50;99.90;;;;;;5092620;28;20055;-59
2022/12/20 05:40:06;;;;;;;4.03;0.52;;;7.50;99.90;;;;;;5092544;28;20048;-59
2022/12/20 05:42:34;;;;;;;6.95;0.50;;;7.50;99.90;;;;;;5092098;28;20047;-59
2022/12/20 05:45:03;;;;;;;6.50;0.68;;;7.40;99.90;;;;;;5092260;28;20051;-59
2022/12/20 05:47:35;;;;;;;8.05;0.90;;;7.40;99.90;;;;;;5085991;28;20044;-59
2022/12/20 05:50:08;;;;;;;9.95;1.15;;;7.40;99.90;;;;;;5087407;28;20048;-59
2022/12/20 05:53:05;;;;;;;5.45;0.60;;;7.90;99.90;;;;;;5089867;28;20487;-59
2022/12/20 05:55:47;;;;;;;5.38;0.70;;;7.30;99.90;;;;;;5089028;28;20044;-59
2022/12/20 05:58:16;;;;;;;8.10;0.80;;;7.30;99.90;;;;;;5088628;28;20048;-59
2022/12/20 06:01:04;;;;;;;4.85;1.08;;;7.30;99.90;;;;;;5074729;28;20483;-59
2022/12/20 06:03:37;;;;;;;6.10;0.53;;;7.30;99.90;;;;;;5077295;28;20051;-59
2022/12/20 06:06:24;;;;;;;6.88;0.75;;;7.20;99.90;;;;;;5081644;28;20040;-59
2022/12/20 06:08:52;;;;;;;4.43;0.98;;;7.20;99.90;;;;;;5083949;28;20040;-58
2022/12/20 06:11:35;;;;;;;4.50;1.02;;;7.20;99.90;;;;;;5088191;28;20376;-59
2022/12/20 06:14:07;;;;;;;3.75;0.98;;;7.20;99.90;;;;;;5087910;28;20047;-59
2022/12/20 06:16:38;;;;;;;7.95;1.60;;;7.20;99.90;;;;;;5086238;28;20039;-59
2022/12/20 06:19:08;;;;;;;13.00;0.82;;;7.10;99.90;;;;;;5080343;28;20055;-57
2022/12/20 06:21:37;;;;;;;8.70;1.17;;;7.10;99.90;;;;;;5084863;28;20036;-59
2022/12/20 06:24:05;;;;;;;7.25;0.90;;;7.10;99.90;;;;;;5084479;28;20051;-59
2022/12/20 06:26:35;;;;;;;7.20;1.02;;;7.10;99.90;;;;;;5085563;28;20048;-59
2022/12/20 06:29:07;;;;;;;3.42;0.52;;;7.10;99.90;;;;;;5085362;28;20495;-59
2022/12/20 06:31:43;;;;;;;6.07;1.23;;;7.10;99.90;;;;;;5088100;28;20044;-59
2022/12/20 06:34:11;;;;;;;6.93;0.88;;;7.10;99.90;;;;;;5083662;28;20040;-59
2022/12/20 06:36:40;;;;;;;4.05;0.70;;;7.10;99.90;;;;;;5085835;28;20048;-58
2022/12/20 06:39:14;;;;;;;9.35;0.98;;;7.00;99.90;;;;;;5084515;28;20078;-58
2022/12/20 06:41:53;;;;;;;7.18;1.08;;;7.00;99.90;;;;;;5086309;28;20044;-58
2022/12/20 06:44:20;;;;;;;10.30;1.85;;;6.90;99.90;;;;;;5088883;28;20067;-58
2022/12/20 06:46:49;;;;;;;6.30;1.07;;;6.90;99.90;;;;;;5087996;28;20051;-58
2022/12/20 06:49:17;;;;;;;2.83;0.70;;;6.80;99.90;;;;;;5069210;28;20045;-59
2022/12/20 06:51:45;;;;;;;6.85;1.20;;;6.80;99.90;;;;;;5075954;28;20074;-60
2022/12/20 06:54:13;;;;;;;4.80;0.77;;;6.70;99.90;;;;;;5081444;28;20526;-60
2022/12/20 06:56:41;;;;;;;12.50;1.35;;;6.70;99.90;;;;;;5087219;28;20036;-59
2022/12/20 06:59:11;;;;;;;5.32;1.80;;;6.70;99.90;;;;;;5082186;28;20051;-59
2022/12/20 07:01:38;;;;;;;13.95;0.90;;;6.60;99.90;;;;;;5085510;28;20047;-59
2022/12/20 07:04:06;;;;;;;12.00;1.45;;;6.60;99.90;;;;;;5081548;28;20059;-59
2022/12/20 07:06:34;;;;;;;12.27;1.45;;;6.60;99.90;;;;;;5080259;28;20052;-59
2022/12/20 07:09:02;;;;;;;10.95;1.25;;;6.60;99.90;;;;;;5087824;28;20040;-60
2022/12/20 07:11:30;;;;;;;8.30;1.20;;;6.60;99.90;;;;;;5082693;28;20052;-60
2022/12/20 07:13:58;;;;;;;14.90;0.98;;;6.60;99.90;;;;;;5082568;28;20556;-60
2022/12/20 07:16:26;;;;;;;7.13;1.85;;;6.50;99.90;;;;;;5086251;28;20051;-61
2022/12/20 07:18:54;;;;;;;8.75;1.15;;;6.60;99.90;;;;;;5085615;28;20051;-61
2022/12/20 07:21:21;;;;;;;10.95;0.68;;;6.50;99.90;;;;;;5085181;28;20074;-60
2022/12/20 07:23:49;;;;;;;10.48;1.55;;;6.50;99.90;;;;;;5078594;28;20053;-61
2022/12/20 07:26:17;;;;;;;7.90;1.00;;;6.50;99.90;;;;;;5080335;28;20550;-61
2022/12/20 07:28:45;;;;;;;11.27;1.10;;;6.50;99.90;;;;;;5088639;28;20044;-61
2022/12/20 07:31:12;;;;;;;8.65;1.77;;;6.40;99.90;;;;;;5085308;28;20055;-60
2022/12/20 07:33:40;;;;;;;3.10;1.00;;;6.40;99.90;;;;;;5082746;28;20044;-59
2022/12/20 07:36:12;;;;;;;8.63;2.15;;;6.30;99.90;;;;;;5085634;28;20047;-59
2022/12/20 07:38:40;;;;;;;12.60;1.60;;;6.30;99.90;;;;;;5087931;28;20387;-59
2022/12/20 07:41:10;;;;;;;9.52;1.20;;;6.20;99.90;;;;;;5088122;28;20032;-59
2022/12/20 07:43:38;;;;;;;;;;;6.20;99.90;;;;;;5086343;28;20047;-60
2022/12/20 07:46:06;;;;;;;12.40;1.30;;;6.20;99.90;;;;;;5089581;28;19920;-59
2022/12/20 07:48:35;;;;;;;7.88;1.40;;;6.10;99.90;;;;;;5079816;28;20048;-59
2022/12/20 07:51:26;;;;;;;8.43;1.65;;;6.20;99.90;;;;;;5067311;28;20063;-59
2022/12/20 07:54:08;;;;;;;14.00;1.42;;;6.10;99.90;;;;;;5084233;28;20503;-59
2022/12/20 07:56:40;;;;;;;15.45;1.63;;;5.70;99.90;;;;;;5088088;28;20388;-59
2022/12/20 07:59:12;;;;;;;15.90;2.05;;;6.00;99.90;;;;;;5085695;28;20044;-60
2022/12/20 08:01:41;;;;;;;19.83;1.80;;;6.00;99.90;;;;;;5086278;28;20051;-60
2022/12/20 08:04:11;;;;;;;;;;;6.00;99.90;;;;;;5084172;28;20044;-60
2022/12/20 08:06:40;;;;;;;9.88;0.98;;;6.00;99.90;;;;;;5085110;28;20374;-60
2022/12/20 08:09:12;;;;;;;10.35;0.95;;;6.10;99.90;;;;;;5072552;28;20398;-60
2022/12/20 08:11:42;;;;;;;7.25;1.23;;;7.10;99.90;;;;;;5086656;28;20044;-59
2022/12/20 08:14:10;;;;;;;11.98;1.73;;;6.00;99.90;;;;;;5091393;28;20043;-60
2022/12/20 08:16:38;;;;;;;6.38;2.08;;;6.10;99.90;;;;;;5075282;28;20044;-60
2022/12/20 08:19:05;;;;;;;15.27;1.40;;;6.10;99.90;;;;;;5078716;28;20177;-60
2022/12/20 08:21:33;;;;;;;8.43;1.23;;;6.10;99.90;;;;;;5078141;28;20068;-60
2022/12/20 08:24:01;;;;;;;5.45;0.90;;;6.20;99.90;;;;;;5074139;28;20541;-61
2022/12/20 08:26:29;;;;;;;5.97;1.05;;;6.20;99.90;;;;;;5070057;28;20041;-59
2022/12/20 08:28:56;;;;;;;12.02;1.20;;;6.30;99.90;;;;;;5087462;28;20044;-60
2022/12/20 08:31:24;;;;;;;5.63;1.48;;;6.30;99.90;;;;;;5089658;28;20055;-60
2022/12/20 08:33:53;;;;;;;19.17;1.95;;;6.40;99.90;;;;;;5082721;28;20040;-60
2022/12/20 08:36:21;;;;;;;9.02;1.02;;;6.40;99.90;;;;;;5071368;28;20048;-59
2022/12/20 08:38:49;;;;;;;8.85;1.27;;;6.40;99.90;;;;;;5078505;28;20056;-58
2022/12/20 08:41:17;;;;;;;11.23;1.10;;;6.40;99.90;;;;;;5077837;28;20056;-60
2022/12/20 08:43:44;;;;;;;16.20;2.70;;;6.40;99.90;;;;;;5081318;28;20040;-60
2022/12/20 08:46:12;;;;;;;9.25;1.20;;;6.30;99.90;;;;;;5078801;28;20044;-59
2022/12/20 08:48:40;;;;;;;8.40;1.42;;;6.30;99.90;;;;;;5076414;28;20055;-59
2022/12/20 08:51:09;;;;;;;13.65;2.55;;;6.30;99.90;;;;;;5077091;28;20385;-59
2022/12/20 08:53:37;;;;;;;16.08;1.60;;;6.20;99.90;;;;;;5078765;28;20063;-61
2022/12/20 08:56:11;;;;;;;10.98;1.70;;;6.30;99.90;;;;;;5070955;28;20044;-60
2022/12/20 08:58:39;;;;;;;12.25;1.55;;;6.30;99.90;;;;;;5088212;28;20051;-60
2022/12/20 09:01:10;;;;;;;14.93;1.90;;;6.30;99.90;;;;;;5086808;28;20047;-60
2022/12/20 09:03:39;;;;;;;18.77;2.08;;;6.40;99.90;;;;;;5082657;28;20051;-59
2022/12/20 09:06:12;;;;;;;14.07;2.00;;;6.40;99.90;;;;;;5070778;28;20036;-59
2022/12/20 09:08:40;;;;;;;17.30;1.83;;;6.40;99.90;;;;;;5083645;28;20044;-58
2022/12/20 09:11:11;;;;;;;16.27;2.60;;;6.40;99.90;;;;;;5089879;28;20051;-58
2022/12/20 09:13:40;;;;;;;16.05;1.95;;;6.40;99.90;;;;;;5098782;28;20059;-61
2022/12/20 09:16:13;;;;;;;15.30;1.70;;;6.40;99.90;;;;;;5090477;28;20040;-58
2022/12/20 09:18:41;;;;;;;21.42;3.35;;;6.40;99.90;;;;;;5090452;28;20048;-58
2022/12/20 09:21:10;;;;;;;13.13;1.42;;;6.40;99.90;;;;;;5089214;28;20044;-58
2022/12/20 09:23:37;;;;;;;13.00;1.77;;;6.40;99.90;;;;;;5087205;28;20048;-59
2022/12/20 09:26:09;;;;;;;12.82;1.92;;;6.40;99.90;;;;;;5086586;28;20052;-60
2022/12/20 09:28:38;;;;;;;19.40;2.40;;;6.40;99.90;;;;;;5083490;28;20040;-59
2022/12/20 09:31:08;;;;;;;15.05;1.50;;;6.40;99.90;;;;;;5087977;28;20483;-60
2022/12/20 09:33:35;;;;;;;13.52;1.45;;;6.40;99.90;;;;;;5088961;28;20520;-61
2022/12/20 09:36:04;;;;;;;11.07;1.58;;;6.40;99.90;;;;;;5090422;28;20051;-60
2022/12/20 09:38:32;;;;;;;17.55;1.55;;;6.50;99.90;;;;;;5086706;28;20048;-60
2022/12/20 09:41:05;;;;;;;11.52;1.40;;;6.50;99.90;;;;;;5077419;28;20044;-61
2022/12/20 09:43:33;;;;;;;17.10;2.08;;;6.60;99.90;;;;;;5084512;28;20048;-60
2022/12/20 09:46:02;;;;;;;24.35;4.68;;;6.70;99.90;;;;;;5089570;28;20048;-59
2022/12/20 09:48:37;;;;;;;8.77;1.70;;;6.70;99.90;;;;;;5086783;28;20044;-60
2022/12/20 09:51:14;;;;;;;10.45;1.48;;;6.70;99.90;;;;;;5089709;28;20304;-60
2022/12/20 09:54:00;;;;;;;11.07;2.30;;;6.70;99.90;;;;;;5087281;28;20048;-60
2022/12/20 09:56:42;;;;;;;12.82;1.63;;;6.70;99.90;;;;;;5090023;28;20044;-60
2022/12/20 09:59:11;;;;;;;19.30;4.65;;;6.70;99.90;;;;;;5089717;28;20380;-61
2022/12/20 10:01:44;;;;;;;6.47;1.55;;;6.70;99.90;;;;;;5089776;28;20067;-59
2022/12/20 10:04:22;;;;;;;19.38;2.00;;;6.70;99.90;;;;;;5087713;28;20055;-59
2022/12/20 10:06:54;;;;;;;16.38;3.03;;;6.70;99.90;;;;;;5089608;28;20501;-59
2022/12/20 10:09:40;;;;;;;13.82;1.67;;;6.70;99.90;;;;;;5089307;28;20506;-59
2022/12/20 10:12:26;;;;;;;13.75;1.60;;;6.80;99.90;;;;;;5087107;28;20056;-59
2022/12/20 10:15:24;;;;;;;16.50;4.50;;;6.80;99.90;;;;;;5089472;28;20403;-59
2022/12/20 10:18:16;;;;;;;13.32;1.50;;;6.70;99.90;;;;;;5078008;28;20044;-59
2022/12/20 10:21:23;;;;;;;9.40;1.75;;;6.80;99.90;;;;;;5089397;28;20055;-59
2022/12/20 10:24:01;;;;;;;16.02;2.00;;;6.80;99.90;;;;;;5064217;28;20043;-60
2022/12/20 10:26:31;;;;;;;12.57;1.30;;;6.90;99.90;;;;;;5089233;28;20052;-60
2022/12/20 10:28:59;;;;;;;27.27;2.15;;;7.00;99.90;;;;;;5087991;28;20047;-59
2022/12/20 10:31:27;;;;;;;12.88;1.63;;;7.10;99.90;;;;;;5088393;28;20052;-59
2022/12/20 10:33:54;;;;;;;16.77;2.08;;;7.20;99.90;;;;;;5088222;28;20044;-60
2022/12/20 10:36:30;;;;;;;15.82;2.40;;;7.20;99.90;;;;;;5089151;28;20508;-59
2022/12/20 10:39:00;;;;;;;16.27;1.98;;;7.20;99.90;;;;;;5072879;28;20537;-58
2022/12/20 10:41:31;;;;;;;23.60;3.13;;;7.30;99.90;;;;;;5067669;28;20043;-58
2022/12/20 10:44:03;;;;;;;11.90;1.65;;;7.40;99.90;;;;;;5085350;28;20048;-59
2022/12/20 10:46:53;;;;;;;15.85;2.40;;;7.30;99.90;;;;;;5089067;28;20044;-58
2022/12/20 10:49:31;;;;;;;13.60;1.73;;;7.50;99.90;;;;;;5076733;28;20056;-58
2022/12/20 10:52:12;;;;;;;19.77;2.15;;;7.50;99.90;;;;;;5076807;28;20048;-59
2022/12/20 10:54:45;;;;;;;13.60;3.28;;;7.60;99.90;;;;;;5081461;28;20047;-60
2022/12/20 10:57:20;;;;;;;20.67;3.10;;;7.70;99.90;;;;;;5084340;28;20040;-59
2022/12/20 10:59:47;;;;;;;16.63;1.70;;;7.70;99.90;;;;;;5087393;28;20056;-59
2022/12/20 11:02:30;;;;;;;17.75;2.72;;;7.80;99.90;;;;;;5085707;28;20051;-58
2022/12/20 11:05:10;;;;;;;13.95;1.65;;;7.90;99.90;;;;;;5082263;28;20043;-58
2022/12/20 11:07:50;;;;;;;18.40;1.98;;;8.10;99.90;;;;;;5083369;28;20036;-57
2022/12/20 11:10:38;;;;;;;16.05;1.83;;;8.10;99.90;;;;;;5083957;28;20479;-59
2022/12/20 11:13:17;;;;;;;20.60;1.50;;;8.20;99.90;;;;;;5087778;28;20051;-57
2022/12/20 11:15:53;;;;;;;16.73;2.03;;;8.40;99.90;;;;;;5086621;28;20616;-57
2022/12/20 11:18:32;;;;;;;22.83;2.60;;;8.60;99.90;;;;;;5088260;28;20044;-58
2022/12/20 11:21:03;;;;;;;22.58;2.75;;;8.60;99.90;;;;;;5088393;28;20048;-58
2022/12/20 11:23:55;;;;;;;15.15;1.90;;;8.70;99.90;;;;;;5088206;28;20055;-58
2022/12/20 11:26:51;;;;;;;16.88;2.67;;;8.70;99.90;;;;;;5069986;28;20040;-58
2022/12/20 11:29:50;;;;;;;18.02;2.28;;;8.70;99.90;;;;;;5088192;28;20048;-59
2022/12/20 11:32:30;;;;;;;17.13;1.88;;;8.60;99.90;;;;;;5082100;28;20052;-59
2022/12/20 11:35:02;;;;;;;;;;;8.50;99.90;;;;;;5072686;28;20553;-60
2022/12/20 11:37:49;;;;;;;17.40;2.15;;;8.40;99.90;;;;;;5070484;28;20375;-59
2022/12/20 11:40:30;;;;;;;22.83;2.92;;;8.40;99.90;;;;;;5087276;28;20067;-59
2022/12/20 11:43:23;;;;;;;18.15;2.47;;;8.30;99.90;;;;;;5085176;28;20416;-59
2022/12/20 11:46:12;;;;;;;14.23;1.95;;;8.30;99.90;;;;;;5068217;28;20052;-58
2022/12/20 11:48:58;;;;;;;14.55;1.92;;;8.30;99.90;;;;;;5080616;28;20051;-59
2022/12/20 11:51:39;;;;;;;15.55;1.50;;;8.50;99.90;;;;;;5086963;28;20519;-58
2022/12/20 11:54:25;;;;;;;21.75;3.45;;;9.10;99.90;;;;;;5087658;28;20055;-57
2022/12/20 11:57:02;;;;;;;19.95;3.97;;;9.10;99.90;;;;;;5085515;28;20048;-58
2022/12/20 11:59:53;;;;;;;20.55;2.53;;;9.50;99.90;;;;;;5086707;28;20514;-60
2022/12/20 12:02:37;;;;;;;15.82;2.58;;;9.80;99.90;;;;;;5087912;28;20044;-58
2022/12/20 12:05:43;;;;;;;16.05;1.70;;;10.50;99.90;;;;;;5087876;28;20048;-59
2022/12/20 12:08:20;;;;;;;20.00;2.50;;;10.50;99.90;;;;;;5086674;28;20040;-59
2022/12/20 12:11:23;;;;;;;21.23;3.15;;;10.80;99.90;;;;;;5086823;28;20048;-59
2022/12/20 12:14:27;;;;;;;15.88;3.63;;;10.90;99.90;;;;;;5062387;28;20055;-59
2022/12/20 12:16:59;;;;;;;11.63;2.20;;;11.10;99.90;;;;;;5079094;28;20036;-61
2022/12/20 12:19:28;;;;;;;19.05;3.45;;;11.00;99.90;;;;;;5086374;28;20059;-60
2022/12/20 12:22:04;;;;;;;16.85;2.65;;;10.80;99.90;;;;;;5087883;28;20418;-58
2022/12/20 12:24:38;;;;;;;11.93;1.80;;;10.50;99.90;;;;;;5083318;28;20052;-59
2022/12/20 12:27:14;;;;;;;19.30;1.92;;;10.10;99.90;;;;;;5084382;28;20052;-62
2022/12/20 12:29:43;;;;;;;11.70;1.50;;;9.80;99.90;;;;;;5088132;28;20388;-59
2022/12/20 12:32:24;;;;;;;7.40;1.48;;;9.60;99.90;;;;;;5087098;28;20482;-59
2022/12/20 12:35:31;;;;;;;12.93;1.67;;;9.60;99.90;;;;;;5086050;28;20399;-60
2022/12/20 12:38:21;;;;;;;12.68;1.67;;;10.00;99.90;;;;;;5086280;28;20036;-59
2022/12/20 12:40:49;;;;;;;;;;;10.50;99.90;;;;;;5086988;28;20051;-59
2022/12/20 12:43:22;;;;;;;6.78;1.25;;;10.80;99.90;;;;;;5085415;28;19927;-60
2022/12/20 12:46:01;;;;;;;27.40;3.75;;;11.20;99.90;;;;;;5086508;28;20048;-59
2022/12/20 12:48:44;;;;;;;23.95;2.58;;;11.40;99.90;;;;;;5085334;28;20032;-58
2022/12/20 12:51:14;;;;;;;29.98;2.72;;;11.40;99.90;;;;;;5072927;28;20044;-59
2022/12/20 12:53:48;;;;;;;10.53;1.87;;;11.30;99.90;;;;;;5069398;28;20051;-59
2022/12/20 12:56:24;;;;;;;8.73;1.60;;;11.00;99.90;;;;;;5070775;28;20056;-59
2022/12/20 12:59:32;;;;;;;12.02;1.92;;;11.00;99.90;;;;;;5087791;28;20044;-57
2022/12/20 13:02:05;;;;;;;15.10;1.80;;;11.10;99.90;;;;;;5089820;28;20055;-59
2022/12/20 13:05:21;;;;;;;22.08;4.32;;;11.20;99.90;;;;;;5081175;28;20521;-58
2022/12/20 13:07:53;;;;;;;8.63;1.75;;;11.50;99.90;;;;;;5076857;28;20489;-57
2022/12/20 13:10:23;;;;;;;13.70;2.10;;;11.70;99.90;;;;;;5091327;28;20056;-61
2022/12/20 13:12:56;;;;;;;14.43;2.17;;;12.00;99.90;;;;;;5088880;28;20048;-58
2022/12/20 13:15:23;;;;;;;9.70;2.63;;;12.20;99.90;;;;;;5091534;28;20074;-59
2022/12/20 13:17:58;;;;;;;16.48;2.22;;;12.40;99.90;;;;;;5086265;28;20063;-59
2022/12/20 13:20:29;;;;;;;16.23;2.00;;;12.70;99.90;;;;;;5073775;28;20056;-60
2022/12/20 13:23:23;;;;;;;12.02;1.95;;;12.70;99.90;;;;;;5076628;28;20047;-59
2022/12/20 13:25:51;;;;;;;10.35;2.10;;;13.00;99.90;;;;;;5078438;28;20052;-59
2022/12/20 13:28:24;;;;;;;13.43;1.50;;;12.90;99.90;;;;;;5090408;28;20052;-58
2022/12/20 13:31:01;;;;;;;10.75;1.58;;;12.80;99.90;;;;;;5089339;28;20051;-59
2022/12/20 13:33:44;;;;;;;14.00;1.27;;;12.40;99.90;;;;;;5090399;28;20051;-58